createdAt,value
2023-05-22T00:02:28.168Z,19.99
2023-05-22T00:05:26.398Z,19.95
2023-05-22T00:08:05.284Z,19.92
2023-05-22T00:10:37.786Z,19.89
2023-05-22T00:13:15.725Z,19.86
2023-05-22T00:15:47.876Z,19.89
2023-05-22T00:18:22.809Z,19.88
2023-05-22T00:20:55.019Z,19.80
2023-05-22T00:23:33.706Z,19.81
2023-05-22T00:26:05.991Z,19.76
2023-05-22T00:28:38.632Z,19.77
2023-05-22T00:31:12.639Z,19.71
2023-05-22T00:33:46.403Z,19.74
2023-05-22T00:36:35.766Z,19.66
2023-05-22T00:39:17.123Z,19.60
2023-05-22T00:41:55.231Z,19.58
2023-05-22T00:44:34.830Z,19.55
2023-05-22T00:47:39.142Z,19.53
2023-05-22T00:50:14.670Z,19.50
2023-05-22T00:52:49.030Z,19.46
2023-05-22T00:55:27.165Z,19.34
2023-05-22T00:58:08.423Z,19.32
2023-05-22T01:01:13.599Z,19.30
2023-05-22T01:03:47.525Z,19.25
2023-05-22T01:06:21.927Z,19.25
2023-05-22T01:08:55.064Z,19.23
2023-05-22T01:11:36.846Z,19.20
2023-05-22T01:14:28.064Z,19.15
2023-05-22T01:17:23.021Z,19.12
2023-05-22T01:23:30.908Z,19.04
2023-05-22T01:26:46.629Z,19.01
2023-05-22T01:29:35.566Z,18.99
2023-05-22T01:35:26.183Z,18.89
2023-05-22T01:38:02.873Z,18.81
2023-05-22T01:40:40.126Z,18.76
2023-05-22T01:43:12.526Z,18.80
2023-05-22T01:45:48.079Z,18.77
2023-05-22T01:48:25.111Z,18.72
2023-05-22T01:51:07.107Z,18.68
2023-05-22T01:53:46.643Z,18.66
2023-05-22T01:56:31.193Z,18.67
2023-05-22T01:59:12.587Z,18.57
2023-05-22T02:01:49.525Z,18.61
2023-05-22T02:04:26.647Z,18.63
2023-05-22T02:07:03.028Z,18.59
2023-05-22T02:09:36.967Z,18.60
2023-05-22T02:12:28.710Z,18.60
2023-05-22T02:15:03.790Z,18.60
2023-05-22T02:17:43.115Z,18.56
2023-05-22T02:20:19.186Z,18.54
2023-05-22T02:22:51.784Z,18.47
2023-05-22T02:25:40.567Z,18.38
2023-05-22T02:28:12.791Z,18.42
2023-05-22T02:30:44.742Z,18.45
2023-05-22T02:33:18.497Z,18.38
2023-05-22T02:35:53.274Z,18.37
2023-05-22T02:38:26.158Z,18.31
2023-05-22T02:40:58.224Z,18.24
2023-05-22T02:43:34.022Z,18.20
2023-05-22T02:46:05.980Z,18.18
2023-05-22T02:48:39.030Z,18.20
2023-05-22T02:51:15.270Z,18.12
2023-05-22T02:53:48.350Z,18.11
2023-05-22T02:56:21.877Z,18.08
2023-05-22T02:58:55.042Z,18.12
2023-05-22T03:01:27.295Z,18.08
2023-05-22T03:03:59.847Z,18.00
2023-05-22T03:06:35.627Z,17.99
2023-05-22T03:09:09.201Z,17.98
2023-05-22T03:11:41.342Z,17.93
2023-05-22T03:14:14.627Z,17.92
2023-05-22T03:16:46.988Z,17.89
2023-05-22T03:19:20.355Z,17.79
2023-05-22T03:21:55.120Z,17.83
2023-05-22T03:24:27.833Z,17.83
2023-05-22T03:26:59.987Z,17.84
2023-05-22T03:29:34.551Z,17.83
2023-05-22T03:32:06.730Z,17.79
2023-05-22T03:34:39.471Z,17.81
2023-05-22T03:37:14.611Z,17.86
2023-05-22T03:39:47.306Z,17.83
2023-05-22T03:42:19.794Z,17.83
2023-05-22T03:44:52.639Z,17.86
2023-05-22T03:47:24.670Z,17.87
2023-05-22T03:49:57.007Z,17.90
2023-05-22T03:52:31.648Z,17.99
2023-05-22T03:55:05.304Z,17.89
2023-05-22T03:57:37.458Z,17.94
2023-05-22T04:00:14.024Z,17.99
2023-05-22T04:06:07.921Z,17.94
2023-05-22T04:08:43.422Z,17.96
2023-05-22T04:14:25.272Z,18.04
2023-05-22T04:16:58.544Z,18.05
2023-05-22T04:19:31.538Z,18.09
2023-05-22T04:22:05.908Z,18.05
2023-05-22T04:24:43.623Z,18.09
2023-05-22T04:27:15.995Z,18.14
2023-05-22T04:29:48.702Z,18.21
2023-05-22T04:32:22.188Z,18.29
2023-05-22T04:34:54.744Z,18.33
2023-05-22T04:37:29.227Z,18.41
2023-05-22T04:40:11.763Z,18.52
2023-05-22T04:42:43.975Z,18.65
2023-05-22T04:45:20.102Z,18.72
2023-05-22T04:47:52.899Z,18.71
2023-05-22T04:50:25.976Z,18.86
2023-05-22T04:52:58.018Z,18.78
2023-05-22T04:55:47.006Z,18.86
2023-05-22T04:58:54.283Z,18.81
2023-05-22T05:01:30.986Z,18.89
2023-05-22T05:04:54.111Z,18.96
2023-05-22T05:07:27.025Z,19.05
2023-05-22T05:09:59.178Z,19.11
2023-05-22T05:12:34.999Z,19.27
2023-05-22T05:15:07.661Z,19.29
2023-05-22T05:17:40.666Z,19.38
2023-05-22T05:20:14.894Z,19.46
2023-05-22T05:22:47.758Z,19.53
2023-05-22T05:25:20.917Z,19.76
2023-05-22T05:27:56.949Z,19.78
2023-05-22T05:30:31.984Z,19.72
2023-05-22T05:33:05.151Z,19.68
2023-05-22T05:35:41.412Z,19.72
2023-05-22T05:38:17.632Z,19.93
2023-05-22T05:40:50.664Z,20.03
2023-05-22T05:43:26.749Z,20.15
2023-05-22T05:46:02.618Z,20.46
2023-05-22T05:48:35.406Z,20.63
2023-05-22T05:51:07.662Z,21.03
2023-05-22T05:53:41.315Z,21.12
2023-05-22T05:56:14.108Z,21.35
2023-05-22T05:58:49.642Z,21.43
2023-05-22T06:01:24.992Z,21.44
2023-05-22T06:04:00.338Z,21.50
2023-05-22T06:06:40.078Z,21.72
2023-05-22T06:09:16.435Z,21.67
2023-05-22T06:11:51.784Z,21.90
2023-05-22T06:14:31.646Z,22.13
2023-05-22T06:17:09.775Z,22.37
2023-05-22T06:19:42.796Z,22.27
2023-05-22T06:22:17.430Z,22.63
2023-05-22T06:24:53.155Z,22.73
2023-05-22T06:27:27.777Z,22.61
2023-05-22T06:30:04.806Z,23.06
2023-05-22T06:32:37.957Z,23.15
2023-05-22T06:35:12.532Z,23.04
2023-05-22T06:37:44.628Z,22.80
2023-05-22T06:40:17.556Z,23.79
2023-05-22T06:42:52.226Z,24.08
2023-05-22T06:45:28.375Z,24.21
2023-05-22T06:48:28.131Z,23.84
2023-05-22T06:51:01.641Z,23.55
2023-05-22T06:53:35.024Z,24.05
2023-05-22T06:56:12.450Z,24.13
2023-05-22T06:58:45.227Z,24.46
2023-05-22T07:01:22.311Z,24.67
2023-05-22T07:03:54.465Z,24.64
2023-05-22T07:06:28.189Z,24.43
2023-05-22T07:09:01.770Z,24.67
2023-05-22T07:11:41.008Z,24.84
2023-05-22T07:14:19.441Z,25.00
2023-05-22T07:17:13.384Z,25.03
2023-05-22T07:19:46.336Z,24.74
2023-05-22T07:22:22.332Z,24.70
2023-05-22T07:25:05.528Z,25.11
2023-05-22T07:27:41.628Z,25.80
2023-05-22T07:30:16.145Z,25.96
2023-05-22T07:32:53.550Z,26.00
2023-05-22T07:35:35.982Z,25.92
2023-05-22T07:38:12.142Z,26.09
2023-05-22T07:40:49.099Z,26.25
2023-05-22T07:43:51.868Z,26.58
2023-05-22T07:46:24.977Z,26.57
2023-05-22T07:49:04.006Z,26.74
2023-05-22T07:51:37.184Z,27.03
2023-05-22T07:54:11.029Z,27.84
2023-05-22T07:56:48.821Z,28.16
2023-05-22T07:59:28.750Z,27.85
2023-05-22T08:02:02.719Z,27.41
2023-05-22T08:04:42.658Z,27.23
2023-05-22T08:07:30.189Z,27.39
2023-05-22T08:13:08.660Z,27.56
2023-05-22T08:15:45.697Z,27.84
2023-05-22T08:18:21.945Z,27.39
2023-05-22T08:23:52.080Z,27.91
2023-05-22T08:26:37.578Z,28.31
2023-05-22T08:29:16.425Z,28.21
2023-05-22T08:34:51.300Z,27.56
2023-05-22T08:37:34.100Z,27.66
2023-05-22T08:43:20.816Z,27.20
2023-05-22T08:46:10.862Z,27.00
2023-05-22T08:49:07.291Z,27.58
2023-05-22T08:52:25.782Z,27.98
2023-05-22T08:55:36.705Z,28.33
2023-05-22T08:58:56.267Z,28.95
2023-05-22T09:08:30.422Z,28.60
2023-05-22T09:35:03.223Z,27.73
2023-05-22T09:46:34.907Z,27.12
2023-05-22T09:49:16.459Z,27.01
2023-05-22T09:52:19.194Z,27.03
2023-05-22T09:55:03.560Z,27.30
2023-05-22T09:57:51.713Z,27.38
2023-05-22T10:03:34.187Z,27.85
2023-05-22T10:06:13.659Z,27.59
2023-05-22T10:09:07.868Z,27.23
2023-05-22T10:11:45.242Z,27.19
2023-05-22T10:14:20.903Z,27.19
2023-05-22T10:17:00.602Z,27.05
2023-05-22T10:19:35.229Z,27.46
2023-05-22T10:22:10.509Z,27.21
2023-05-22T10:24:46.047Z,26.95
2023-05-22T10:27:22.172Z,27.16
2023-05-22T10:30:07.836Z,27.36
2023-05-22T10:32:54.170Z,27.36
2023-05-22T10:35:38.779Z,27.67
2023-05-22T10:41:59.360Z,27.82
2023-05-22T10:44:41.066Z,27.71
2023-05-22T11:00:22.278Z,28.11
2023-05-22T11:03:18.832Z,28.15
2023-05-22T11:08:48.325Z,28.36
2023-05-22T11:11:21.676Z,28.38
2023-05-22T11:14:18.473Z,27.94
2023-05-22T11:17:08.727Z,27.53
2023-05-22T11:22:51.530Z,27.34
2023-05-22T11:25:53.336Z,27.64
2023-05-22T11:31:33.830Z,28.07
2023-05-22T11:34:41.308Z,28.23
2023-05-22T11:37:26.571Z,27.74
2023-05-22T11:40:07.332Z,27.54
2023-05-22T11:42:41.207Z,27.34
2023-05-22T11:45:19.634Z,27.27
2023-05-22T12:04:21.608Z,27.60
2023-05-22T12:07:41.628Z,27.37
2023-05-22T12:10:27.521Z,27.15
2023-05-22T12:13:45.826Z,27.16
2023-05-22T12:16:29.424Z,26.72
2023-05-22T12:19:05.342Z,26.74
2023-05-22T12:21:42.556Z,26.61
2023-05-22T12:24:22.184Z,26.71
2023-05-22T12:27:13.281Z,26.67
2023-05-22T12:29:47.830Z,26.76
2023-05-22T12:32:27.705Z,26.75
2023-05-22T12:35:40.436Z,26.64
2023-05-22T12:38:36.234Z,26.65
2023-05-22T12:41:14.523Z,26.57
2023-05-22T12:44:26.414Z,26.62
2023-05-22T12:47:07.759Z,26.64
2023-05-22T12:49:54.594Z,26.85
2023-05-22T12:59:48.958Z,26.40
2023-05-22T13:12:08.951Z,26.09
2023-05-22T13:15:20.171Z,26.28
2023-05-22T13:18:19.969Z,26.17
2023-05-22T13:33:55.507Z,26.16
2023-05-22T13:36:37.474Z,26.08
2023-05-22T13:39:17.815Z,26.15
2023-05-22T13:42:00.124Z,26.09
2023-05-22T13:44:37.162Z,26.22
2023-05-22T13:47:26.413Z,26.23
2023-05-22T13:51:10.353Z,26.32
2023-05-22T13:54:10.449Z,26.37
2023-05-22T13:57:26.237Z,26.31
2023-05-22T14:00:42.073Z,26.24
2023-05-22T14:03:30.029Z,26.15
2023-05-22T14:09:25.975Z,26.33
2023-05-22T14:12:09.231Z,26.41
2023-05-22T14:34:35.882Z,26.43
2023-05-22T14:37:08.710Z,26.32
2023-05-22T14:39:42.353Z,26.31
2023-05-22T14:42:31.006Z,26.37
2023-05-22T14:45:22.002Z,26.32
2023-05-22T14:54:35.772Z,26.31
2023-05-22T15:11:06.195Z,26.09
2023-05-22T15:20:55.450Z,25.90
2023-05-22T15:23:30.603Z,25.81
2023-05-22T15:26:45.628Z,25.79
2023-05-22T15:29:27.502Z,25.73
2023-05-22T15:32:04.787Z,25.74
2023-05-22T15:34:43.162Z,25.67
2023-05-22T15:47:44.225Z,25.54
2023-05-22T15:51:02.193Z,25.40
2023-05-22T15:58:22.906Z,25.27
2023-05-22T16:04:59.496Z,25.12
2023-05-22T16:07:43.523Z,24.99
2023-05-22T16:10:49.713Z,25.10
2023-05-22T16:23:15.960Z,25.19
2023-05-22T16:43:46.463Z,24.95
2023-05-22T16:46:26.872Z,24.89
2023-05-22T16:49:10.533Z,24.84
2023-05-22T16:51:52.584Z,24.89
2023-05-22T16:54:55.535Z,24.99
2023-05-22T16:57:36.365Z,24.93
2023-05-22T17:00:35.212Z,24.90
2023-05-22T17:03:35.829Z,24.90
2023-05-22T17:06:23.611Z,24.94
2023-05-22T17:09:05.321Z,24.94
2023-05-22T17:11:45.395Z,24.88
2023-05-22T17:14:41.454Z,24.85
2023-05-22T17:17:44.072Z,24.76
2023-05-22T17:20:31.140Z,24.65
2023-05-22T17:23:09.680Z,24.63
2023-05-22T17:25:48.143Z,24.51
2023-05-22T17:28:26.618Z,24.44
2023-05-22T17:31:03.351Z,24.39
2023-05-22T17:33:50.162Z,24.35
2023-05-22T17:36:45.462Z,24.34
2023-05-22T17:39:42.570Z,24.41
2023-05-22T17:42:28.963Z,24.24
2023-05-22T17:48:49.282Z,24.19
2023-05-22T17:52:21.840Z,24.06
2023-05-22T17:55:30.138Z,23.92
2023-05-22T18:47:07.427Z,23.02
2023-05-22T18:49:45.827Z,22.89
2023-05-22T18:52:26.590Z,22.83
2023-05-22T18:55:07.669Z,22.73
2023-05-22T18:57:49.381Z,22.70
2023-05-22T19:00:33.381Z,22.68
2023-05-22T19:07:12.187Z,22.59
2023-05-22T19:09:58.677Z,22.52
2023-05-22T19:12:42.852Z,22.52
2023-05-22T19:16:08.199Z,22.42
2023-05-22T19:19:47.213Z,22.26
2023-05-22T19:32:24.384Z,22.06
2023-05-22T19:41:35.055Z,21.94
2023-05-22T19:44:15.047Z,21.89
2023-05-22T19:47:23.901Z,21.86
2023-05-22T19:53:25.620Z,21.74
2023-05-22T19:56:25.761Z,21.71
2023-05-22T19:59:06.434Z,21.64
2023-05-22T20:04:54.231Z,21.50
2023-05-22T20:11:05.154Z,21.44
2023-05-22T20:14:10.489Z,21.37
2023-05-22T20:22:51.251Z,21.15
2023-05-22T20:25:32.251Z,21.16
2023-05-22T20:32:25.789Z,21.08
2023-05-22T21:01:47.392Z,20.51
2023-05-22T21:07:28.818Z,20.45
2023-05-22T21:13:40.986Z,20.35
2023-05-22T21:22:31.520Z,20.24
2023-05-22T21:25:50.095Z,20.26
2023-05-22T21:28:55.034Z,20.25
2023-05-22T21:35:29.744Z,20.19
2023-05-22T21:38:10.350Z,20.19
2023-05-22T21:44:20.624Z,20.14
2023-05-22T21:53:06.025Z,20.06
2023-05-22T21:55:47.531Z,20.01
2023-05-22T21:58:25.211Z,20.01
2023-05-22T22:10:08.539Z,19.90
2023-05-22T22:12:54.025Z,19.86
2023-05-22T22:15:33.964Z,19.88
2023-05-22T22:18:18.641Z,19.85
2023-05-22T22:21:08.162Z,19.78
2023-05-22T22:23:51.997Z,19.75
2023-05-22T22:26:35.024Z,19.69
2023-05-22T22:29:14.483Z,19.69
2023-05-22T22:31:59.456Z,19.73
2023-05-22T22:35:03.894Z,19.73
2023-05-22T22:37:41.636Z,19.70
2023-05-22T22:40:20.119Z,19.65
2023-05-22T22:42:57.838Z,19.63
2023-05-22T22:45:39.002Z,19.51
2023-05-22T22:48:17.727Z,19.52
2023-05-22T22:53:59.594Z,19.40
2023-05-22T22:56:44.320Z,19.43
2023-05-22T22:59:43.994Z,19.41
2023-05-22T23:02:35.942Z,19.40
2023-05-22T23:05:23.769Z,19.40
2023-05-22T23:08:17.876Z,19.38
2023-05-22T23:10:54.715Z,19.34
2023-05-22T23:13:36.952Z,19.34
2023-05-22T23:16:26.982Z,19.34
2023-05-22T23:19:18.411Z,19.34
2023-05-22T23:22:16.426Z,19.30
2023-05-22T23:25:11.963Z,19.28
2023-05-22T23:27:48.915Z,19.28
2023-05-22T23:30:28.526Z,19.23
2023-05-22T23:33:09.717Z,19.23
2023-05-22T23:35:43.776Z,19.11
2023-05-22T23:38:17.470Z,19.13
2023-05-22T23:40:54.796Z,19.15
2023-05-22T23:43:26.723Z,19.13
2023-05-22T23:45:59.187Z,19.08
2023-05-22T23:48:31.982Z,19.08
2023-05-22T23:51:09.407Z,19.03
2023-05-22T23:53:41.765Z,19.05
2023-05-22T23:56:21.150Z,19.06
2023-05-22T23:58:53.234Z,19.00
